createdAt,value
2019-02-03T00:00:06.136Z,1002.83
2019-02-03T00:01:06.019Z,1002.78
2019-02-03T00:02:06.029Z,1002.79
2019-02-03T00:03:05.913Z,1002.81
2019-02-03T00:04:12.605Z,1002.83
2019-02-03T00:05:05.857Z,1002.83
2019-02-03T00:06:05.874Z,1002.84
2019-02-03T00:07:05.812Z,1002.84
2019-02-03T00:08:05.903Z,1002.90
2019-02-03T00:09:05.736Z,1002.92
2019-02-03T00:10:05.711Z,1002.96
2019-02-03T00:11:05.676Z,1002.98
2019-02-03T00:12:05.656Z,1002.92
2019-02-03T00:13:05.703Z,1002.96
2019-02-03T00:14:05.655Z,1002.92
2019-02-03T00:15:05.583Z,1002.87
2019-02-03T00:16:05.517Z,1002.82
2019-02-03T00:17:05.521Z,1002.89
2019-02-03T00:18:05.469Z,1002.90
2019-02-03T00:19:05.440Z,1002.92
2019-02-03T00:20:05.397Z,1002.90
2019-02-03T00:21:05.442Z,1002.94
2019-02-03T00:22:05.332Z,1002.93
2019-02-03T00:23:05.366Z,1002.98
2019-02-03T00:24:05.258Z,1002.95
2019-02-03T00:25:12.130Z,1003.00
2019-02-03T00:26:05.381Z,1002.95
2019-02-03T00:27:05.185Z,1003.00
2019-02-03T00:28:05.145Z,1002.96
2019-02-03T00:29:05.248Z,1002.94
2019-02-03T00:30:05.072Z,1002.97
2019-02-03T00:31:07.167Z,1002.97
2019-02-03T00:32:05.013Z,1003.02
2019-02-03T00:33:04.991Z,1002.95
2019-02-03T00:34:04.951Z,1002.99
2019-02-03T00:35:04.916Z,1002.95
2019-02-03T00:36:04.879Z,1002.97
2019-02-03T00:37:15.345Z,1002.99
2019-02-03T00:38:04.828Z,1002.99
2019-02-03T00:39:04.771Z,1003.03
2019-02-03T00:40:04.751Z,1003.00
2019-02-03T00:41:05.828Z,1003.07
2019-02-03T00:42:04.688Z,1003.12
2019-02-03T00:43:04.662Z,1003.11
2019-02-03T00:44:04.628Z,1003.14
2019-02-03T00:45:04.601Z,1003.11
2019-02-03T00:46:04.561Z,1003.14
2019-02-03T00:47:04.546Z,1003.17
2019-02-03T00:48:04.583Z,1003.18
2019-02-03T00:49:04.501Z,1003.19
2019-02-03T00:50:04.430Z,1003.20
2019-02-03T00:51:04.407Z,1003.24
2019-02-03T00:52:06.466Z,1003.23
2019-02-03T00:53:04.334Z,1003.25
2019-02-03T00:54:04.415Z,1003.28
2019-02-03T00:55:04.274Z,1003.27
2019-02-03T00:56:04.322Z,1003.26
2019-02-03T00:57:04.215Z,1003.28
2019-02-03T00:58:04.297Z,1003.33
2019-02-03T00:59:04.249Z,1003.37
2019-02-03T01:00:04.126Z,1003.36
2019-02-03T01:01:04.092Z,1003.36
2019-02-03T01:02:04.163Z,1003.34
2019-02-03T01:03:04.048Z,1003.44
2019-02-03T01:04:04.075Z,1003.43
2019-02-03T01:05:03.985Z,1003.44
2019-02-03T01:06:03.996Z,1003.49
2019-02-03T01:07:03.914Z,1003.53
2019-02-03T01:08:04.932Z,1003.56
2019-02-03T01:09:03.826Z,1003.58
2019-02-03T01:10:03.869Z,1003.61
2019-02-03T01:11:03.839Z,1003.65
2019-02-03T01:12:04.854Z,1003.64
2019-02-03T01:13:03.723Z,1003.63
2019-02-03T01:14:03.769Z,1003.69
2019-02-03T01:15:03.658Z,1003.73
2019-02-03T01:16:03.655Z,1003.76
2019-02-03T01:17:03.570Z,1003.76
2019-02-03T01:18:03.561Z,1003.76
2019-02-03T01:19:04.598Z,1003.81
2019-02-03T01:20:03.475Z,1003.80
2019-02-03T01:21:03.466Z,1003.83
2019-02-03T01:22:04.504Z,1003.85
2019-02-03T01:23:03.406Z,1003.87
2019-02-03T01:24:03.445Z,1003.88
2019-02-03T01:25:03.312Z,1003.91
2019-02-03T01:26:03.312Z,1003.92
2019-02-03T01:27:03.304Z,1003.91
2019-02-03T01:28:04.243Z,1003.94
2019-02-03T01:29:03.182Z,1003.90
2019-02-03T01:30:03.224Z,1003.88
2019-02-03T01:31:03.129Z,1003.93
2019-02-03T01:32:03.136Z,1003.92
2019-02-03T01:33:03.058Z,1003.96
2019-02-03T01:34:03.050Z,1003.93
2019-02-03T01:35:03.001Z,1004.03
2019-02-03T01:36:03.066Z,1004.00
2019-02-03T01:37:02.947Z,1003.99
2019-02-03T01:38:02.982Z,1004.04
2019-02-03T01:39:02.865Z,1004.03
2019-02-03T01:40:02.888Z,1004.03
2019-02-03T01:41:02.814Z,1004.01
2019-02-03T01:42:02.797Z,1004.07
2019-02-03T01:43:02.739Z,1004.05
2019-02-03T01:44:02.815Z,1004.11
2019-02-03T01:45:02.684Z,1004.11
2019-02-03T01:46:02.656Z,1004.13
2019-02-03T01:47:02.632Z,1004.14
2019-02-03T01:48:02.631Z,1004.13
2019-02-03T01:49:02.557Z,1004.16
2019-02-03T01:50:02.553Z,1004.16
2019-02-03T01:51:02.490Z,1004.18
2019-02-03T01:52:02.455Z,1004.18
2019-02-03T01:53:02.463Z,1004.17
2019-02-03T01:54:02.413Z,1004.19
2019-02-03T01:55:02.362Z,1004.16
2019-02-03T01:56:02.370Z,1004.18
2019-02-03T01:57:02.295Z,1004.18
2019-02-03T01:58:02.434Z,1004.13
2019-02-03T01:59:02.237Z,1004.10
2019-02-03T02:00:03.341Z,1004.15
2019-02-03T02:01:02.184Z,1004.11
2019-02-03T02:02:02.192Z,1004.17
2019-02-03T02:03:02.101Z,1004.20
2019-02-03T02:04:02.116Z,1004.19
2019-02-03T02:05:02.034Z,1004.22
2019-02-03T02:06:02.131Z,1004.20
2019-02-03T02:07:01.984Z,1004.16
2019-02-03T02:08:01.971Z,1004.23
2019-02-03T02:09:01.916Z,1004.18
2019-02-03T02:10:01.881Z,1004.20
2019-02-03T02:11:01.846Z,1004.16
2019-02-03T02:12:03.906Z,1004.17
2019-02-03T02:13:01.785Z,1004.21
2019-02-03T02:14:03.816Z,1004.23
2019-02-03T02:15:01.717Z,1004.21
2019-02-03T02:16:01.694Z,1004.18
2019-02-03T02:17:01.778Z,1004.22
2019-02-03T02:18:01.691Z,1004.27
2019-02-03T02:19:03.654Z,1004.25
2019-02-03T02:20:01.565Z,1004.32
2019-02-03T02:21:03.651Z,1004.29
2019-02-03T02:22:01.503Z,1004.36
2019-02-03T02:23:01.481Z,1004.31
2019-02-03T02:24:01.526Z,1004.36
2019-02-03T02:25:01.407Z,1004.36
2019-02-03T02:26:01.372Z,1004.42
2019-02-03T02:27:01.367Z,1004.43
2019-02-03T02:28:01.393Z,1004.37
2019-02-03T02:29:01.351Z,1004.34
2019-02-03T02:30:01.252Z,1004.39
2019-02-03T02:31:01.229Z,1004.44
2019-02-03T02:32:02.298Z,1004.44
2019-02-03T02:33:01.148Z,1004.45
2019-02-03T02:34:01.123Z,1004.45
2019-02-03T02:35:02.196Z,1004.42
2019-02-03T02:36:01.065Z,1004.51
2019-02-03T02:37:01.016Z,1004.55
2019-02-03T02:38:06.437Z,1004.56
2019-02-03T02:39:02.109Z,1004.61
2019-02-03T02:40:12.053Z,1004.59
2019-02-03T02:41:00.912Z,1004.65
2019-02-03T02:42:08.653Z,1004.62
2019-02-03T02:43:00.838Z,1004.59
2019-02-03T02:44:00.831Z,1004.64
2019-02-03T02:45:00.795Z,1004.65
2019-02-03T02:46:00.744Z,1004.66
2019-02-03T02:47:00.797Z,1004.64
2019-02-03T02:48:00.670Z,1004.64
2019-02-03T02:49:00.718Z,1004.63
2019-02-03T02:50:00.615Z,1004.68
2019-02-03T02:51:00.622Z,1004.69
2019-02-03T02:52:00.543Z,1004.67
2019-02-03T02:53:01.552Z,1004.63
2019-02-03T02:54:00.504Z,1004.58
2019-02-03T02:55:00.444Z,1004.63
2019-02-03T02:56:00.442Z,1004.59
2019-02-03T02:57:00.454Z,1004.61
2019-02-03T02:58:00.347Z,1004.63
2019-02-03T02:59:00.425Z,1004.63
2019-02-03T03:00:00.443Z,1004.64
2019-02-03T03:01:00.261Z,1004.61
2019-02-03T03:02:00.270Z,1004.62
2019-02-03T03:03:00.185Z,1004.62
2019-02-03T03:04:00.154Z,1004.61
2019-02-03T03:05:00.353Z,1004.62
2019-02-03T03:06:00.097Z,1004.56
2019-02-03T03:07:00.098Z,1004.60
2019-02-03T03:08:00.033Z,1004.65
2019-02-03T03:08:59.992Z,1004.62
2019-02-03T03:09:59.976Z,1004.60
2019-02-03T03:10:59.944Z,1004.61
2019-02-03T03:11:59.912Z,1004.66
2019-02-03T03:12:59.875Z,1004.72
2019-02-03T03:13:59.859Z,1004.67
2019-02-03T03:14:59.822Z,1004.67
2019-02-03T03:15:59.780Z,1004.72
2019-02-03T03:16:59.754Z,1004.69
2019-02-03T03:17:59.723Z,1004.69
2019-02-03T03:18:59.674Z,1004.68
2019-02-03T03:19:59.659Z,1004.68
2019-02-03T03:20:59.610Z,1004.67
2019-02-03T03:21:59.584Z,1004.74
2019-02-03T03:23:00.506Z,1004.69
2019-02-03T03:23:59.573Z,1004.70
2019-02-03T03:24:59.490Z,1004.76
2019-02-03T03:25:59.496Z,1004.75
2019-02-03T03:26:59.447Z,1004.77
2019-02-03T03:27:59.397Z,1004.74
2019-02-03T03:28:59.371Z,1004.77
2019-02-03T03:29:59.397Z,1004.75
2019-02-03T03:30:59.343Z,1004.73
2019-02-03T03:31:59.400Z,1004.77
2019-02-03T03:32:59.260Z,1004.76
2019-02-03T03:33:59.230Z,1004.73
2019-02-03T03:34:59.164Z,1004.75
2019-02-03T03:35:59.146Z,1004.75
2019-02-03T03:36:59.098Z,1004.75
2019-02-03T03:37:59.079Z,1004.71
2019-02-03T03:38:59.030Z,1004.75
2019-02-03T03:39:59.039Z,1004.75
2019-02-03T03:40:59.008Z,1004.78
2019-02-03T03:41:58.989Z,1004.81
2019-02-03T03:42:58.904Z,1004.80
2019-02-03T03:43:58.879Z,1004.82
2019-02-03T03:44:58.876Z,1004.81
2019-02-03T03:45:58.874Z,1004.82
2019-02-03T03:46:58.778Z,1004.81
2019-02-03T03:47:58.903Z,1004.80
2019-02-03T03:48:58.709Z,1004.82
2019-02-03T03:49:58.728Z,1004.78
2019-02-03T03:50:58.707Z,1004.79
2019-02-03T03:51:58.617Z,1004.83
2019-02-03T03:52:59.665Z,1004.80
2019-02-03T03:53:58.573Z,1004.85
2019-02-03T03:54:58.635Z,1004.85
2019-02-03T03:55:58.497Z,1004.92
2019-02-03T03:56:58.607Z,1004.90
2019-02-03T03:57:58.429Z,1004.96
2019-02-03T03:58:58.396Z,1004.99
2019-02-03T03:59:58.376Z,1005.06
2019-02-03T04:00:58.321Z,1005.01
2019-02-03T04:01:58.305Z,1005.05
2019-02-03T04:02:58.273Z,1005.05
2019-02-03T04:03:58.334Z,1005.07
2019-02-03T04:04:58.196Z,1005.03
2019-02-03T04:05:58.223Z,1005.09
2019-02-03T04:06:58.137Z,1005.01
2019-02-03T04:07:58.149Z,1005.00
2019-02-03T04:08:58.076Z,1005.07
2019-02-03T04:09:58.161Z,1005.07
2019-02-03T04:10:58.001Z,1005.02
2019-02-03T04:11:58.138Z,1005.03
2019-02-03T04:12:57.934Z,1005.02
2019-02-03T04:13:57.906Z,1005.00
2019-02-03T04:14:57.886Z,1005.02
2019-02-03T04:15:57.850Z,1005.02
2019-02-03T04:16:57.829Z,1005.05
2019-02-03T04:17:57.808Z,1005.06
2019-02-03T04:18:57.745Z,1005.06
2019-02-03T04:19:57.812Z,1005.08
2019-02-03T04:20:57.709Z,1005.04
2019-02-03T04:21:57.660Z,1005.11
2019-02-03T04:22:57.626Z,1005.14
2019-02-03T04:23:57.598Z,1005.19
2019-02-03T04:24:57.565Z,1005.20
2019-02-03T04:25:57.518Z,1005.22
2019-02-03T04:26:57.590Z,1005.28
2019-02-03T04:27:57.455Z,1005.34
2019-02-03T04:28:57.453Z,1005.31
2019-02-03T04:29:57.404Z,1005.41
2019-02-03T04:30:57.468Z,1005.41
2019-02-03T04:31:57.330Z,1005.48
2019-02-03T04:32:57.373Z,1005.57
2019-02-03T04:33:57.259Z,1005.55
2019-02-03T04:34:57.224Z,1005.54
2019-02-03T04:35:57.292Z,1005.60
2019-02-03T04:36:57.160Z,1005.63
2019-02-03T04:37:57.208Z,1005.65
2019-02-03T04:38:58.599Z,1005.71
2019-02-03T04:39:57.073Z,1005.72
2019-02-03T04:40:57.139Z,1005.74
2019-02-03T04:41:57.036Z,1005.71
2019-02-03T04:42:56.973Z,1005.78
2019-02-03T04:43:56.996Z,1005.83
2019-02-03T04:44:56.899Z,1005.86
2019-02-03T04:45:56.904Z,1005.93
2019-02-03T04:46:56.858Z,1006.03
2019-02-03T04:47:56.928Z,1006.04
2019-02-03T04:48:56.787Z,1006.07
2019-02-03T04:49:56.833Z,1006.08
2019-02-03T04:50:56.721Z,1006.18
2019-02-03T04:51:56.786Z,1006.18
2019-02-03T04:52:56.650Z,1006.19
2019-02-03T04:53:56.651Z,1006.24
2019-02-03T04:54:56.584Z,1006.25
2019-02-03T04:55:56.671Z,1006.24
2019-02-03T04:56:56.547Z,1006.29
2019-02-03T04:57:56.492Z,1006.29
2019-02-03T04:58:56.449Z,1006.25
2019-02-03T04:59:56.433Z,1006.32
2019-02-03T05:00:56.510Z,1006.30
2019-02-03T05:01:56.376Z,1006.32
2019-02-03T05:02:56.333Z,1006.30
2019-02-03T05:03:56.308Z,1006.32
2019-02-03T05:04:56.278Z,1006.29
2019-02-03T05:05:56.220Z,1006.35
2019-02-03T05:06:56.244Z,1006.35
2019-02-03T05:07:56.167Z,1006.40
2019-02-03T05:08:56.129Z,1006.41
2019-02-03T05:09:56.111Z,1006.48
2019-02-03T05:10:56.086Z,1006.49
2019-02-03T05:11:56.043Z,1006.54
2019-02-03T05:12:56.013Z,1006.54
2019-02-03T05:13:55.963Z,1006.63
2019-02-03T05:14:55.940Z,1006.73
2019-02-03T05:15:55.913Z,1006.76
2019-02-03T05:16:55.878Z,1006.77
2019-02-03T05:17:55.855Z,1006.79
2019-02-03T05:18:55.826Z,1006.88
2019-02-03T05:19:55.799Z,1006.95
2019-02-03T05:20:55.765Z,1007.01
2019-02-03T05:21:55.712Z,1007.02
2019-02-03T05:22:55.694Z,1007.09
2019-02-03T05:23:55.649Z,1007.14
2019-02-03T05:24:55.634Z,1007.20
2019-02-03T05:25:55.659Z,1007.21
2019-02-03T05:26:55.560Z,1007.15
2019-02-03T05:27:55.566Z,1007.14
2019-02-03T05:28:55.484Z,1007.12
2019-02-03T05:29:55.463Z,1007.16
2019-02-03T05:30:55.415Z,1007.11
2019-02-03T05:31:55.397Z,1007.13
2019-02-03T05:32:55.360Z,1007.10
2019-02-03T05:33:55.335Z,1007.17
2019-02-03T05:34:55.298Z,1007.15
2019-02-03T05:35:55.301Z,1007.15
2019-02-03T05:36:55.249Z,1007.14
2019-02-03T05:37:55.198Z,1007.16
2019-02-03T05:38:55.444Z,1007.17
2019-02-03T05:39:55.156Z,1007.19
2019-02-03T05:40:55.126Z,1007.23
2019-02-03T05:41:55.067Z,1007.28
2019-02-03T05:42:55.060Z,1007.29
2019-02-03T05:43:55.062Z,1007.32
2019-02-03T05:44:54.980Z,1007.31
2019-02-03T05:45:54.936Z,1007.35
2019-02-03T05:46:54.913Z,1007.34
2019-02-03T05:47:54.889Z,1007.35
2019-02-03T05:48:54.890Z,1007.33
2019-02-03T05:49:54.806Z,1007.31
2019-02-03T05:50:54.814Z,1007.34
2019-02-03T05:51:54.752Z,1007.35
2019-02-03T05:52:54.706Z,1007.33
2019-02-03T05:53:54.703Z,1007.33
2019-02-03T05:54:54.654Z,1007.36
2019-02-03T05:55:54.611Z,1007.38
2019-02-03T05:56:54.580Z,1007.39
2019-02-03T05:57:54.581Z,1007.45
2019-02-03T05:58:54.702Z,1007.45
2019-02-03T05:59:54.496Z,1007.50
2019-02-03T06:00:54.460Z,1007.53
2019-02-03T06:01:54.466Z,1007.51
2019-02-03T06:02:54.387Z,1007.50
2019-02-03T06:03:54.358Z,1007.49
2019-02-03T06:04:54.329Z,1007.47
2019-02-03T06:05:54.304Z,1007.49
2019-02-03T06:06:54.259Z,1007.47
2019-02-03T06:07:54.240Z,1007.43
2019-02-03T06:08:54.212Z,1007.48
2019-02-03T06:09:54.230Z,1007.47
2019-02-03T06:10:54.130Z,1007.45
2019-02-03T06:11:54.128Z,1007.54
2019-02-03T06:12:54.067Z,1007.63
2019-02-03T06:13:54.042Z,1007.62
2019-02-03T06:14:54.032Z,1007.65
2019-02-03T06:15:53.985Z,1007.66
2019-02-03T06:16:54.000Z,1007.69
2019-02-03T06:17:53.932Z,1007.66
2019-02-03T06:18:53.879Z,1007.70
2019-02-03T06:19:53.947Z,1007.69
2019-02-03T06:20:53.829Z,1007.71
2019-02-03T06:21:53.814Z,1007.72
2019-02-03T06:22:53.784Z,1007.72
2019-02-03T06:23:53.718Z,1007.72
2019-02-03T06:24:53.677Z,1007.69
2019-02-03T06:25:53.663Z,1007.70
2019-02-03T06:26:53.630Z,1007.72
2019-02-03T06:27:53.639Z,1007.68
2019-02-03T06:28:53.561Z,1007.69
2019-02-03T06:29:53.531Z,1007.64
2019-02-03T06:30:53.490Z,1007.70
2019-02-03T06:31:53.452Z,1007.76
2019-02-03T06:32:53.439Z,1007.74
2019-02-03T06:33:53.388Z,1007.77
2019-02-03T06:34:53.353Z,1007.80
2019-02-03T06:35:53.371Z,1007.75
2019-02-03T06:36:53.303Z,1007.76
2019-02-03T06:37:53.274Z,1007.75
2019-02-03T06:38:53.215Z,1007.82
2019-02-03T06:39:53.191Z,1007.79
2019-02-03T06:40:53.154Z,1007.79
2019-02-03T06:41:53.127Z,1007.85
2019-02-03T06:42:53.096Z,1007.83
2019-02-03T06:43:53.106Z,1007.85
2019-02-03T06:44:53.027Z,1007.88
2019-02-03T06:45:53.013Z,1007.89
2019-02-03T06:46:52.993Z,1007.87
2019-02-03T06:47:52.954Z,1007.88
2019-02-03T06:48:52.900Z,1007.89
2019-02-03T06:49:52.884Z,1007.93
2019-02-03T06:50:52.854Z,1007.93
2019-02-03T06:51:52.972Z,1007.91
2019-02-03T06:52:52.821Z,1007.90
2019-02-03T06:53:52.921Z,1007.94
2019-02-03T06:54:52.774Z,1007.91
2019-02-03T06:55:52.671Z,1007.94
2019-02-03T06:56:52.647Z,1007.98
2019-02-03T06:57:52.603Z,1007.96
2019-02-03T06:58:52.570Z,1007.97
2019-02-03T06:59:52.543Z,1007.98
2019-02-03T07:00:52.504Z,1007.95
2019-02-03T07:01:52.466Z,1008.05
2019-02-03T07:02:52.438Z,1008.07
2019-02-03T07:03:52.413Z,1008.06
2019-02-03T07:04:52.375Z,1008.05
2019-02-03T07:05:52.346Z,1008.11
2019-02-03T07:06:52.338Z,1008.12
2019-02-03T07:07:52.299Z,1008.11
2019-02-03T07:08:52.248Z,1008.10
2019-02-03T07:10:00.572Z,1008.18
2019-02-03T07:10:52.182Z,1008.12
2019-02-03T07:11:52.152Z,1008.14
2019-02-03T07:12:52.115Z,1008.15
2019-02-03T07:13:52.098Z,1008.18
2019-02-03T07:14:52.058Z,1008.19
2019-02-03T07:15:52.024Z,1008.21
2019-02-03T07:16:51.991Z,1008.21
2019-02-03T07:17:51.950Z,1008.20
2019-02-03T07:18:51.921Z,1008.23
2019-02-03T07:19:51.898Z,1008.26
2019-02-03T07:20:51.857Z,1008.22
2019-02-03T07:21:51.827Z,1008.30
2019-02-03T07:22:51.793Z,1008.33
2019-02-03T07:23:51.755Z,1008.32
2019-02-03T07:24:51.723Z,1008.30
2019-02-03T07:25:51.697Z,1008.34
2019-02-03T07:26:51.661Z,1008.38
2019-02-03T07:27:51.630Z,1008.34
2019-02-03T07:28:51.592Z,1008.40
2019-02-03T07:29:51.631Z,1008.44
2019-02-03T07:30:51.531Z,1008.39
2019-02-03T07:31:51.503Z,1008.43
2019-02-03T07:32:51.562Z,1008.39
2019-02-03T07:33:51.426Z,1008.44
2019-02-03T07:34:51.398Z,1008.47
2019-02-03T07:35:51.470Z,1008.51
2019-02-03T07:36:51.332Z,1008.52
2019-02-03T07:37:51.303Z,1008.55
2019-02-03T07:38:51.277Z,1008.50
2019-02-03T07:39:51.297Z,1008.53
2019-02-03T07:40:51.218Z,1008.58
2019-02-03T07:41:51.169Z,1008.62
2019-02-03T07:42:51.138Z,1008.64
2019-02-03T07:43:51.105Z,1008.63
2019-02-03T07:44:51.083Z,1008.64
2019-02-03T07:45:51.143Z,1008.69
2019-02-03T07:46:51.008Z,1008.70
2019-02-03T07:47:51.020Z,1008.74
2019-02-03T07:48:50.960Z,1008.77
2019-02-03T07:49:50.980Z,1008.71
2019-02-03T07:50:50.877Z,1008.71
2019-02-03T07:51:50.938Z,1008.75
2019-02-03T07:52:50.809Z,1008.71
2019-02-03T07:53:50.791Z,1008.74
2019-02-03T07:54:50.778Z,1008.73
2019-02-03T07:55:50.725Z,1008.73
2019-02-03T07:56:50.688Z,1008.80
2019-02-03T07:57:50.655Z,1008.79
2019-02-03T07:58:50.685Z,1008.82
2019-02-03T07:59:50.594Z,1008.83
2019-02-03T08:00:50.551Z,1008.87
2019-02-03T08:01:50.528Z,1008.86
2019-02-03T08:02:50.489Z,1008.94
2019-02-03T08:03:50.461Z,1008.95
2019-02-03T08:04:50.418Z,1008.93
2019-02-03T08:05:50.399Z,1008.98
2019-02-03T08:06:50.362Z,1009.01
2019-02-03T08:07:50.326Z,1009.08
2019-02-03T08:08:50.296Z,1009.09
2019-02-03T08:09:50.259Z,1009.05
2019-02-03T08:10:50.230Z,1009.09
2019-02-03T08:11:50.198Z,1009.09
2019-02-03T08:12:50.168Z,1009.12
2019-02-03T08:13:50.144Z,1009.14
2019-02-03T08:14:50.102Z,1009.18
2019-02-03T08:15:50.061Z,1009.14
2019-02-03T08:16:50.049Z,1009.24
2019-02-03T08:17:50.017Z,1009.18
2019-02-03T08:18:49.962Z,1009.15
2019-02-03T08:19:49.957Z,1009.20
2019-02-03T08:20:49.922Z,1009.22
2019-02-03T08:21:49.857Z,1009.23
2019-02-03T08:22:49.854Z,1009.28
2019-02-03T08:23:51.273Z,1009.32
2019-02-03T08:24:49.768Z,1009.30
2019-02-03T08:25:49.743Z,1009.29
2019-02-03T08:26:49.714Z,1009.32
2019-02-03T08:27:49.684Z,1009.36
2019-02-03T08:28:49.672Z,1009.37
2019-02-03T08:29:49.621Z,1009.38
2019-02-03T08:30:49.599Z,1009.41
2019-02-03T08:31:49.568Z,1009.39
2019-02-03T08:32:49.509Z,1009.35
2019-02-03T08:33:49.485Z,1009.38
2019-02-03T08:34:49.598Z,1009.40
2019-02-03T08:35:49.420Z,1009.37
2019-02-03T08:36:49.477Z,1009.40
2019-02-03T08:37:49.534Z,1009.39
2019-02-03T08:38:49.319Z,1009.40
2019-02-03T08:39:49.296Z,1009.38
2019-02-03T08:40:49.256Z,1009.41
2019-02-03T08:41:49.225Z,1009.43
2019-02-03T08:42:49.198Z,1009.47
2019-02-03T08:43:49.154Z,1009.50
2019-02-03T08:44:49.129Z,1009.58
2019-02-03T08:45:50.202Z,1009.61
2019-02-03T08:46:49.063Z,1009.61
2019-02-03T08:47:49.033Z,1009.62
2019-02-03T08:48:49.028Z,1009.60
2019-02-03T08:49:49.098Z,1009.66
2019-02-03T08:50:49.115Z,1009.63
2019-02-03T08:51:49.173Z,1009.66
2019-02-03T08:52:51.321Z,1009.64
2019-02-03T08:53:49.142Z,1009.66
2019-02-03T08:54:58.016Z,1009.68
2019-02-03T08:55:48.768Z,1009.72
2019-02-03T08:56:48.781Z,1009.77
2019-02-03T08:57:48.731Z,1009.78
2019-02-03T08:58:48.723Z,1009.73
2019-02-03T08:59:48.635Z,1009.77
2019-02-03T09:00:48.636Z,1009.83
2019-02-03T09:01:48.582Z,1009.81
2019-02-03T09:02:48.530Z,1009.80
2019-02-03T09:03:48.548Z,1009.78
2019-02-03T09:04:48.464Z,1009.85
2019-02-03T09:05:48.445Z,1009.86
2019-02-03T09:06:48.417Z,1009.91
2019-02-03T09:07:48.484Z,1009.91
2019-02-03T09:08:48.347Z,1009.94
2019-02-03T09:09:48.322Z,1009.96
2019-02-03T09:10:48.985Z,1009.95
2019-02-03T09:11:48.256Z,1009.98
2019-02-03T09:12:48.235Z,1009.98
2019-02-03T09:13:48.212Z,1010.00
2019-02-03T09:14:48.185Z,1009.92
2019-02-03T09:15:48.426Z,1009.94
2019-02-03T09:16:48.174Z,1009.94
2019-02-03T09:17:48.086Z,1009.95
2019-02-03T09:18:48.033Z,1009.92
2019-02-03T09:19:48.314Z,1009.95
2019-02-03T09:20:48.404Z,1009.95
2019-02-03T09:21:47.956Z,1009.93
2019-02-03T09:22:47.948Z,1009.94
2019-02-03T09:23:47.914Z,1009.93
2019-02-03T09:24:47.904Z,1009.96
2019-02-03T09:25:47.862Z,1009.99
2019-02-03T09:26:47.807Z,1010.05
2019-02-03T09:27:48.792Z,1009.95
2019-02-03T09:28:47.760Z,1010.05
2019-02-03T09:29:47.811Z,1010.08
2019-02-03T09:30:47.698Z,1010.08
2019-02-03T09:31:47.678Z,1010.08
2019-02-03T09:32:47.655Z,1010.13
2019-02-03T09:33:47.633Z,1010.07
2019-02-03T09:34:47.583Z,1010.13
2019-02-03T09:35:47.552Z,1010.08
2019-02-03T09:36:47.529Z,1010.11
2019-02-03T09:37:47.511Z,1010.12
2019-02-03T09:38:47.471Z,1010.12
2019-02-03T09:39:47.528Z,1010.16
2019-02-03T09:40:47.410Z,1010.17
2019-02-03T09:41:47.403Z,1010.17
2019-02-03T09:42:47.377Z,1010.18
2019-02-03T09:43:47.351Z,1010.17
2019-02-03T09:44:47.300Z,1010.16
2019-02-03T09:45:47.279Z,1010.26
2019-02-03T09:46:47.265Z,1010.28
2019-02-03T09:47:47.219Z,1010.32
2019-02-03T09:48:47.202Z,1010.33
2019-02-03T09:49:47.164Z,1010.26
2019-02-03T09:50:47.154Z,1010.35
2019-02-03T09:51:47.129Z,1010.32
2019-02-03T09:52:47.086Z,1010.36
2019-02-03T09:53:47.042Z,1010.37
2019-02-03T09:54:50.073Z,1010.38
2019-02-03T09:55:46.989Z,1010.35
2019-02-03T09:56:46.958Z,1010.41
2019-02-03T09:57:47.002Z,1010.43
2019-02-03T09:58:46.911Z,1010.44
2019-02-03T09:59:46.878Z,1010.49
2019-02-03T10:00:46.846Z,1010.43
2019-02-03T10:01:46.877Z,1010.49
2019-02-03T10:02:46.805Z,1010.50
2019-02-03T10:03:46.875Z,1010.53
2019-02-03T10:04:46.745Z,1010.52
2019-02-03T10:05:46.805Z,1010.58
2019-02-03T10:06:46.689Z,1010.57
2019-02-03T10:07:46.660Z,1010.58
2019-02-03T10:08:46.691Z,1010.58
2019-02-03T10:09:46.606Z,1010.67
2019-02-03T10:10:46.562Z,1010.63
2019-02-03T10:11:46.550Z,1010.59
2019-02-03T10:12:46.528Z,1010.63
2019-02-03T10:13:46.493Z,1010.68
2019-02-03T10:14:46.530Z,1010.67
2019-02-03T10:15:46.440Z,1010.66
2019-02-03T10:16:47.573Z,1010.72
2019-02-03T10:17:46.404Z,1010.80
2019-02-03T10:18:46.450Z,1010.81
2019-02-03T10:19:46.324Z,1010.83
2019-02-03T10:20:46.398Z,1010.82
2019-02-03T10:21:46.373Z,1010.86
2019-02-03T10:22:46.242Z,1010.90
2019-02-03T10:23:46.323Z,1010.89
2019-02-03T10:24:46.179Z,1010.86
2019-02-03T10:25:46.157Z,1010.85
2019-02-03T10:26:46.119Z,1010.90
2019-02-03T10:27:46.101Z,1010.85
2019-02-03T10:28:46.754Z,1010.90
2019-02-03T10:29:48.138Z,1010.93
2019-02-03T10:30:46.073Z,1010.92
2019-02-03T10:31:47.095Z,1010.96
2019-02-03T10:32:45.959Z,1011.00
2019-02-03T10:33:45.957Z,1010.98
2019-02-03T10:34:45.890Z,1011.01
2019-02-03T10:36:00.736Z,1011.03
2019-02-03T10:36:45.844Z,1011.07
2019-02-03T10:38:06.837Z,1011.07
2019-02-03T10:38:45.789Z,1011.12
2019-02-03T10:39:45.798Z,1011.12
2019-02-03T10:40:45.744Z,1011.14
2019-02-03T10:41:45.832Z,1011.18
2019-02-03T10:42:45.693Z,1011.13
2019-02-03T10:43:45.722Z,1011.21
2019-02-03T10:44:45.632Z,1011.24
2019-02-03T10:45:47.703Z,1011.23
2019-02-03T10:46:45.569Z,1011.28
2019-02-03T10:47:45.556Z,1011.26
2019-02-03T10:48:45.501Z,1011.23
2019-02-03T10:49:46.718Z,1011.30
2019-02-03T10:50:45.435Z,1011.33
2019-02-03T10:51:45.494Z,1011.26
2019-02-03T10:52:45.406Z,1011.34
2019-02-03T10:53:47.466Z,1011.38
2019-02-03T10:54:45.324Z,1011.37
2019-02-03T10:55:46.315Z,1011.37
2019-02-03T10:56:45.299Z,1011.31
2019-02-03T10:57:45.306Z,1011.41
2019-02-03T10:58:45.208Z,1011.46
2019-02-03T10:59:51.768Z,1011.45
2019-02-03T11:00:45.163Z,1011.42
2019-02-03T11:01:45.119Z,1011.42
2019-02-03T11:02:46.203Z,1011.43
2019-02-03T11:03:45.100Z,1011.46
2019-02-03T11:04:47.113Z,1011.49
2019-02-03T11:05:45.010Z,1011.49
2019-02-03T11:06:46.125Z,1011.48
2019-02-03T11:07:44.932Z,1011.51
2019-02-03T11:08:44.989Z,1011.49
2019-02-03T11:09:44.884Z,1011.53
2019-02-03T11:10:44.886Z,1011.55
2019-02-03T11:11:44.822Z,1011.62
2019-02-03T11:12:44.901Z,1011.60
2019-02-03T11:13:44.782Z,1011.60
2019-02-03T11:14:44.852Z,1011.65
2019-02-03T11:15:44.716Z,1011.66
2019-02-03T11:16:59.259Z,1011.67
2019-02-03T11:17:44.676Z,1011.69
2019-02-03T11:18:44.616Z,1011.65
2019-02-03T11:19:44.596Z,1011.63
2019-02-03T11:20:51.299Z,1011.67
2019-02-03T11:21:44.541Z,1011.70
2019-02-03T11:22:46.646Z,1011.70
2019-02-03T11:23:44.517Z,1011.72
2019-02-03T11:24:46.559Z,1011.71
2019-02-03T11:25:44.409Z,1011.74
2019-02-03T11:26:46.412Z,1011.69
2019-02-03T11:27:44.383Z,1011.73
2019-02-03T11:28:59.227Z,1011.70
2019-02-03T11:29:44.316Z,1011.75
2019-02-03T11:30:51.354Z,1011.76
2019-02-03T11:31:44.244Z,1011.82
2019-02-03T11:32:44.328Z,1011.78
2019-02-03T11:33:44.182Z,1011.80
2019-02-03T11:34:44.152Z,1011.81
2019-02-03T11:35:44.125Z,1011.86
2019-02-03T11:36:44.095Z,1011.83
2019-02-03T11:37:44.072Z,1011.88
2019-02-03T11:38:44.048Z,1011.91
2019-02-03T11:39:44.023Z,1011.91
2019-02-03T11:40:43.990Z,1011.92
2019-02-03T11:41:49.293Z,1011.92
2019-02-03T11:42:43.940Z,1011.91
2019-02-03T11:43:43.906Z,1011.93
2019-02-03T11:44:43.862Z,1011.96
2019-02-03T11:45:43.843Z,1012.00
2019-02-03T11:46:43.814Z,1012.02
2019-02-03T11:47:43.775Z,1012.03
2019-02-03T11:48:43.740Z,1012.07
2019-02-03T11:49:43.711Z,1012.05
2019-02-03T11:50:43.679Z,1012.11
2019-02-03T11:51:43.656Z,1012.06
2019-02-03T11:52:43.643Z,1012.09
2019-02-03T11:53:43.595Z,1012.12
2019-02-03T11:54:43.638Z,1012.12
2019-02-03T11:55:43.536Z,1012.11
2019-02-03T11:56:43.502Z,1012.14
2019-02-03T11:57:43.481Z,1012.12
2019-02-03T11:58:43.445Z,1012.12
2019-02-03T11:59:43.410Z,1012.17
2019-02-03T12:00:43.513Z,1012.18
2019-02-03T12:01:43.467Z,1012.18
2019-02-03T12:02:43.333Z,1012.19
2019-02-03T12:03:43.315Z,1012.17
2019-02-03T12:04:43.275Z,1012.21